TimeEDT,TemperatureF,Dew PointF,Humidity,Sea Level PressureIn,VisibilityMPH,Wind Direction,Wind SpeedMPH,Gust SpeedMPH,PrecipitationIn,Events,Conditions,WindDirDegrees,DateUTC
12:51 AM,42.1,37.9,85,29.76,10.0,WSW,4.6,-,N/A,,Clear,250,2013-10-23 04:51:00
1:51 AM,41.0,37.0,86,29.77,10.0,West,4.6,-,N/A,,Clear,270,2013-10-23 05:51:00
2:51 AM,41.0,37.0,86,29.77,10.0,Calm,Calm,-,N/A,,Clear,0,2013-10-23 06:51:00
3:51 AM,41.0,35.1,79,29.78,10.0,Calm,Calm,-,N/A,,Clear,0,2013-10-23 07:51:00
4:51 AM,37.9,34.0,86,29.78,10.0,Calm,Calm,-,N/A,,Clear,0,2013-10-23 08:51:00
5:51 AM,37.0,33.1,86,29.76,10.0,Calm,Calm,-,N/A,,Clear,0,2013-10-23 09:51:00
6:51 AM,36.0,34.0,93,29.76,10.0,Calm,Calm,-,N/A,,Clear,0,2013-10-23 10:51:00
7:51 AM,37.0,33.1,86,29.75,10.0,Calm,Calm,-,N/A,,Clear,0,2013-10-23 11:51:00
8:51 AM,44.1,35.1,71,29.75,10.0,WSW,3.5,-,N/A,,Clear,250,2013-10-23 12:51:00
9:51 AM,48.9,34.0,56,29.75,10.0,Calm,Calm,-,N/A,,Clear,0,2013-10-23 13:51:00
10:51 AM,50.0,33.1,52,29.73,10.0,SE,5.8,-,N/A,,Partly Cloudy,140,2013-10-23 14:51:00
11:51 AM,52.0,37.0,57,29.70,10.0,South,9.2,-,N/A,,Scattered Clouds,170,2013-10-23 15:51:00
12:51 PM,51.1,37.0,59,29.68,10.0,SSE,9.2,-,N/A,,Scattered Clouds,150,2013-10-23 16:51:00
1:51 PM,51.1,35.1,54,29.65,10.0,South,5.8,-,N/A,,Scattered Clouds,170,2013-10-23 17:51:00
2:51 PM,51.1,35.1,54,29.62,10.0,SE,5.8,-,N/A,,Clear,140,2013-10-23 18:51:00
3:51 PM,50.0,37.0,61,29.59,10.0,ESE,5.8,-,N/A,,Clear,110,2013-10-23 19:51:00
4:51 PM,48.9,37.9,66,29.61,10.0,SE,8.1,-,N/A,,Clear,130,2013-10-23 20:51:00
5:51 PM,48.0,37.9,68,29.59,10.0,East,3.5,-,N/A,,Clear,90,2013-10-23 21:51:00
6:51 PM,46.0,39.0,76,29.62,10.0,Calm,Calm,-,N/A,,Clear,0,2013-10-23 22:51:00
7:51 PM,46.9,39.0,74,29.60,10.0,Calm,Calm,-,N/A,,Overcast,0,2013-10-23 23:51:00
8:51 PM,46.9,39.9,77,29.60,10.0,Calm,Calm,-,N/A,,Overcast,0,2013-10-24 00:51:00
9:51 PM,45.0,39.9,82,29.62,10.0,NW,3.5,-,N/A,,Overcast,310,2013-10-24 01:51:00
10:51 PM,45.0,39.9,82,29.61,10.0,NNW,5.8,-,N/A,,Overcast,340,2013-10-24 02:51:00
11:51 PM,46.0,36.0,68,29.60,10.0,NNW,6.9,-,N/A,,Overcast,340,2013-10-24 03:51:00